Time;durP1;ratioP1;P1;durP2;ratioP2;P2;SDS_P1;SDS_P2;PMS_P1;PMS_P2;Temp;Humidity;BMP_temperature;BMP_pressure;BME280_temperature;BME280_humidity;BME280_pressure;Samples;Min_cycle;Max_cycle;Signal;HPM_P1;HPM_P2
2022/04/03 00:01:50;;;;;;;;;;;0.80;99.90;;;;;;5030813;28;19960;-73
2022/04/03 00:04:19;;;;;;;;;;;0.80;99.90;;;;;;5030888;28;20439;-74
2022/04/03 00:06:46;;;;;;;;;;;0.80;99.90;;;;;;5047566;28;19926;-74
2022/04/03 00:09:13;;;;;;;;;;;0.80;99.90;;;;;;5034961;28;19925;-75
2022/04/03 00:11:41;;;;;;;;;;;0.80;99.90;;;;;;5051339;28;19925;-74
2022/04/03 00:14:08;;;;;;;;;;;0.80;99.90;;;;;;5051552;28;19925;-74
2022/04/03 00:16:36;;;;;;;;;;;0.80;99.90;;;;;;5034729;28;20407;-74
2022/04/03 00:19:03;;;;;;;;;;;0.80;99.90;;;;;;5034523;28;19925;-74
2022/04/03 00:21:32;;;;;;;;;;;0.80;99.90;;;;;;5051291;28;19961;-74
2022/04/03 00:23:58;;;;;;;;;;;0.80;99.90;;;;;;5051593;28;20019;-75
2022/04/03 00:26:25;;;;;;;;;;;0.80;99.90;;;;;;5035032;28;20388;-74
2022/04/03 00:28:52;;;;;;;;;;;0.80;99.90;;;;;;5051089;28;19925;-75
2022/04/03 00:31:20;;;;;;;;;;;0.80;99.90;;;;;;5051481;28;19931;-74
2022/04/03 00:33:47;;;;;;;;;;;0.70;99.90;;;;;;5051091;28;20376;-74
2022/04/03 00:36:14;;;;;;;;;;;0.70;99.90;;;;;;5034576;28;19925;-74
2022/04/03 00:38:42;;;;;;;;;;;0.70;99.90;;;;;;5051049;28;19925;-74
2022/04/03 00:41:10;;;;;;;;;;;0.70;99.90;;;;;;5051127;28;19925;-74
2022/04/03 00:43:37;;;;;;;;;;;0.60;99.90;;;;;;5034283;28;19940;-75
2022/04/03 00:46:05;;;;;;;;;;;0.60;99.90;;;;;;5051110;28;19967;-75
2022/04/03 00:48:32;;;;;;;;;;;0.60;99.90;;;;;;5034298;28;20032;-74
2022/04/03 00:50:59;;;;;;;;;;;0.50;99.90;;;;;;5033809;28;20032;-74
2022/04/03 00:53:26;;;;;;;;;;;0.50;99.90;;;;;;5050644;28;19929;-74
2022/04/03 00:55:54;;;;;;;;;;;0.50;99.90;;;;;;5050796;28;19932;-74
2022/04/03 00:58:23;;;;;;;;;;;0.40;99.90;;;;;;5050790;28;19925;-74
2022/04/03 01:00:49;;;;;;;;;;;0.40;99.90;;;;;;5050324;28;20024;-75
2022/04/03 01:03:16;;;;;;;;;;;0.40;99.90;;;;;;5061508;28;19935;-72
2022/04/03 01:05:43;;;;;;;;;;;0.40;99.90;;;;;;5053310;28;19925;-74
2022/04/03 01:08:10;;;;;;;;;;;0.40;99.90;;;;;;5070778;28;19931;-75
2022/04/03 01:10:37;;;;;;;;;;;0.30;99.90;;;;;;5070606;28;20016;-74
2022/04/03 01:13:05;;;;;;;;;;;0.30;99.90;;;;;;5070582;28;19925;-74
2022/04/03 01:15:33;;;;;;;;;;;0.30;99.90;;;;;;5070253;28;20375;-74
2022/04/03 01:17:59;;;;;;;;;;;0.30;99.90;;;;;;5053437;28;20292;-75
2022/04/03 01:20:26;;;;;;;;;;;0.20;99.90;;;;;;5069965;28;20395;-74
2022/04/03 01:22:53;;;;;;;;;;;0.20;99.90;;;;;;5070551;28;20433;-75
2022/04/03 01:25:23;;;;;;;;;;;0.20;99.90;;;;;;5069976;28;20458;-75
2022/04/03 01:27:50;;;;;;;;;;;0.20;99.90;;;;;;5053561;28;20019;-74
2022/04/03 01:30:17;;;;;;;;;;;0.10;99.90;;;;;;5069898;28;19925;-74
2022/04/03 01:32:44;;;;;;;;;;;0.10;99.90;;;;;;5053047;28;19925;-74
2022/04/03 01:35:10;;;;;;;;;;;0.00;99.90;;;;;;5070272;28;19932;-74
2022/04/03 01:37:37;;;;;;;;;;;0.00;99.90;;;;;;5053375;28;19925;-74
2022/04/03 01:40:04;;;;;;;;;;;0.00;99.90;;;;;;5053492;28;19931;-75
2022/04/03 01:42:33;;;;;;;;;;;-0.10;99.90;;;;;;5070163;28;19925;-75
2022/04/03 01:45:00;;;;;;;;;;;-0.10;99.90;;;;;;5069585;28;19929;-74
2022/04/03 01:47:27;;;;;;;;;;;-0.20;99.90;;;;;;5069616;28;19924;-74
2022/04/03 01:49:54;;;;;;;;;;;-0.20;99.90;;;;;;5069677;28;20432;-74
2022/04/03 01:52:21;;;;;;;;;;;-0.30;99.90;;;;;;5069353;28;19925;-74
2022/04/03 01:54:48;;;;;;;;;;;-0.30;99.90;;;;;;5052193;28;19947;-74
2022/04/03 01:57:15;;;;;;;;;;;-0.30;99.90;;;;;;5069608;28;19925;-74
2022/04/03 01:59:43;;;;;;;;;;;-0.30;99.90;;;;;;5069448;28;19932;-75
2022/04/03 02:02:11;;;;;;;;;;;-0.40;99.90;;;;;;5069751;28;19925;-74
2022/04/03 02:04:38;;;;;;;;;;;-0.40;99.90;;;;;;5069037;28;19925;-74
2022/04/03 02:07:05;;;;;;;;;;;-0.50;99.90;;;;;;5069240;28;19925;-74
2022/04/03 02:09:32;;;;;;;;;;;-0.50;99.90;;;;;;5069045;28;19960;-74
2022/04/03 02:11:59;;;;;;;;;;;-0.60;99.90;;;;;;5069420;28;19925;-72
2022/04/03 02:14:26;;;;;;;;;;;-0.60;99.90;;;;;;5068914;28;19924;-74
2022/04/03 02:16:56;;;;;;;;;;;-0.70;99.90;;;;;;5069067;28;19951;-74
2022/04/03 02:19:23;;;;;;;;;;;-0.70;99.90;;;;;;5052262;28;19925;-75
2022/04/03 02:21:50;;;;;;;;;;;-0.80;99.90;;;;;;5052417;28;19925;-75
2022/04/03 02:24:17;;;;;;;;;;;-0.80;99.90;;;;;;5052518;28;19947;-75
2022/04/03 02:26:44;;;;;;;;;;;-0.80;99.90;;;;;;5069327;28;19972;-73
2022/04/03 02:29:11;;;;;;;;;;;-0.90;99.90;;;;;;5068924;28;19925;-75
2022/04/03 02:31:38;;;;;;;;;;;-0.90;99.90;;;;;;5051855;28;19925;-74
2022/04/03 02:34:07;;;;;;;;;;;-0.90;99.90;;;;;;5052422;28;19928;-74
2022/04/03 02:36:34;;;;;;;;;;;-0.90;99.90;;;;;;5069810;28;20020;-75
2022/04/03 02:39:01;;;;;;;;;;;-0.90;99.90;;;;;;5068857;28;20303;-74
2022/04/03 02:41:28;;;;;;;;;;;-0.90;99.90;;;;;;5069116;28;19950;-74
2022/04/03 02:43:55;;;;;;;;;;;-1.00;99.90;;;;;;5068466;28;19925;-74
2022/04/03 02:46:22;;;;;;;;;;;-1.00;99.90;;;;;;5068848;28;19925;-73
2022/04/03 02:48:49;;;;;;;;;;;-1.00;99.90;;;;;;5068665;28;19932;-74
2022/04/03 02:51:17;;;;;;;;;;;-1.10;99.90;;;;;;5068810;28;19933;-74
2022/04/03 02:53:44;;;;;;;;;;;-1.10;99.90;;;;;;5068438;28;19928;-74
2022/04/03 02:56:11;;;;;;;;;;;-1.10;99.90;;;;;;5051966;28;20387;-74
2022/04/03 02:58:38;;;;;;;;;;;-1.10;99.90;;;;;;5068543;28;19936;-75
2022/04/03 03:01:05;;;;;;;;;;;-1.10;99.90;;;;;;5068413;28;19925;-74
2022/04/03 03:03:32;;;;;;;;;;;-1.10;99.90;;;;;;5051572;28;19972;-73
2022/04/03 03:05:59;;;;;;;;;;;-1.20;99.90;;;;;;5068032;28;19931;-75
2022/04/03 03:08:27;;;;;;;;;;;-1.20;99.90;;;;;;5051587;28;20011;-75
2022/04/03 03:10:54;;;;;;;;;;;-1.20;99.90;;;;;;5068445;28;19925;-74
2022/04/03 03:13:21;;;;;;;;;;;-1.30;99.90;;;;;;5067837;28;19924;-75
2022/04/03 03:15:48;;;;;;;;;;;-1.30;99.90;;;;;;5067885;28;20391;-75
2022/04/03 03:18:14;;;;;;;;;;;-1.40;99.90;;;;;;5068192;28;19924;-74
2022/04/03 03:20:41;;;;;;;;;;;-1.40;99.90;;;;;;5051307;28;19929;-75
2022/04/03 03:23:08;;;;;;;;;;;-1.50;99.90;;;;;;5068138;28;19925;-71
2022/04/03 03:25:37;;;;;;;;;;;-1.50;99.90;;;;;;5068217;28;19925;-73
2022/04/03 03:28:04;;;;;;;;;;;-1.60;99.90;;;;;;5067928;28;19933;-74
2022/04/03 03:30:31;;;;;;;;;;;-1.60;99.90;;;;;;5067969;28;20397;-73
2022/04/03 03:32:57;;;;;;;;;;;-1.60;99.90;;;;;;5050638;28;19931;-74
2022/04/03 03:35:24;;;;;;;;;;;-1.70;99.90;;;;;;5051153;28;19930;-74
2022/04/03 03:37:51;;;;;;;;;;;-1.70;99.90;;;;;;5050882;28;19925;-74
2022/04/03 03:40:18;;;;;;;;;;;-1.70;99.90;;;;;;5050979;28;19924;-75
2022/04/03 03:42:47;;;;;;;;;;;-1.70;99.90;;;;;;5050354;28;20011;-73
2022/04/03 03:45:15;;;;;;;;;;;-1.70;99.90;;;;;;5051123;28;19925;-75
2022/04/03 03:47:43;;;;;;;;;;;-1.70;99.90;;;;;;5051141;28;20020;-75
2022/04/03 03:50:10;;;;;;;;;;;-1.70;99.90;;;;;;5050942;28;20027;-75
2022/04/03 03:52:37;;;;;;;;;;;-1.80;99.90;;;;;;5051066;28;19935;-74
2022/04/03 03:55:04;;;;;;;;;;;-1.80;99.90;;;;;;5051044;28;19925;-75
2022/04/03 03:57:31;;;;;;;;;;;-1.80;99.90;;;;;;5050731;28;19932;-75
2022/04/03 04:00:00;;;;;;;;;;;-1.80;99.90;;;;;;5050882;28;19932;-75
2022/04/03 04:02:26;;;;;;;;;;;-1.80;99.90;;;;;;5051137;28;19931;-75
2022/04/03 04:04:53;;;;;;;;;;;-1.80;99.90;;;;;;5050686;28;19929;-76
2022/04/03 04:07:20;;;;;;;;;;;-1.90;99.90;;;;;;5051130;28;19925;-75
2022/04/03 04:09:47;;;;;;;;;;;-1.90;99.90;;;;;;5050806;28;19931;-75
2022/04/03 04:12:14;;;;;;;;;;;-1.90;99.90;;;;;;5050603;28;19932;-75
2022/04/03 04:14:42;;;;;;;;;;;-1.90;99.90;;;;;;5050584;28;20388;-75
2022/04/03 04:17:10;;;;;;;;;;;-1.90;99.90;;;;;;5050941;28;19925;-75
2022/04/03 04:19:37;;;;;;;;;;;-2.00;99.90;;;;;;5051002;28;19932;-75
2022/04/03 04:22:04;;;;;;;;;;;-2.10;99.90;;;;;;5050937;28;19929;-75
2022/04/03 04:24:31;;;;;;;;;;;-2.10;99.90;;;;;;5050832;28;19924;-75
2022/04/03 04:26:58;;;;;;;;;;;-2.10;99.90;;;;;;5050713;28;19929;-74
2022/04/03 04:29:25;;;;;;;;;;;-2.10;99.90;;;;;;5050700;28;19932;-75
2022/04/03 04:31:51;;;;;;;;;;;-2.20;99.90;;;;;;5050829;28;19932;-76
2022/04/03 04:34:20;;;;;;;;;;;-2.20;99.90;;;;;;5050860;28;19932;-75
2022/04/03 04:36:47;;;;;;;;;;;-2.20;99.90;;;;;;5050794;28;19932;-75
2022/04/03 04:39:14;;;;;;;;;;;-2.20;99.90;;;;;;5050877;28;19925;-75
2022/04/03 04:41:41;;;;;;;;;;;-2.20;99.90;;;;;;5050532;28;19924;-75
2022/04/03 04:44:08;;;;;;;;;;;-2.20;99.90;;;;;;5050536;28;19929;-75
2022/04/03 04:46:35;;;;;;;;;;;-2.30;99.90;;;;;;5050872;28;19925;-75
2022/04/03 04:49:02;;;;;;;;;;;-2.30;99.90;;;;;;5050625;28;20376;-75
2022/04/03 04:51:30;;;;;;;;;;;-2.30;99.90;;;;;;5050517;28;19939;-76
2022/04/03 04:53:57;;;;;;;;;;;-2.40;99.90;;;;;;5052476;28;19931;-74
2022/04/03 04:56:24;;;;;;;;;;;-2.40;99.90;;;;;;5054405;28;19932;-75
2022/04/03 04:58:51;;;;;;;;;;;-2.40;99.90;;;;;;5054241;28;19929;-73
2022/04/03 05:01:18;;;;;;;;;;;-2.40;99.90;;;;;;5053178;28;19929;-75
2022/04/03 05:03:45;;;;;;;;;;;-2.40;99.90;;;;;;5050842;28;19925;-75
2022/04/03 05:06:15;;;;;;;;;;;-2.40;99.90;;;;;;5036081;28;19956;-74
2022/04/03 05:08:44;;;;;;;;;;;-2.30;99.90;;;;;;5050625;28;19969;-74
2022/04/03 05:11:12;;;;;;;;;;;-2.40;99.90;;;;;;5050782;28;19925;-74
2022/04/03 05:13:38;;;;;;;;;;;-2.40;99.90;;;;;;5034575;28;19925;-75
2022/04/03 05:16:06;;;;;;;;;;;-2.40;99.90;;;;;;5050732;28;19925;-74
2022/04/03 05:18:34;;;;;;;;;;;-2.40;99.90;;;;;;5050770;28;19925;-74
2022/04/03 05:21:01;;;;;;;;;;;-2.40;99.90;;;;;;5063419;28;19925;-74
2022/04/03 05:23:28;;;;;;;;;;;-2.30;99.90;;;;;;5035367;28;20342;-74
2022/04/03 05:25:57;;;;;;;;;;;-2.40;99.90;;;;;;5047468;28;19924;-75
2022/04/03 05:28:23;;;;;;;;;;;-2.30;99.90;;;;;;5070157;28;19925;-74
2022/04/03 05:30:50;;;;;;;;;;;-2.30;99.90;;;;;;5070271;28;19932;-74
2022/04/03 05:33:17;;;;;;;;;;;-2.30;99.90;;;;;;5070276;28;19932;-74
2022/04/03 05:35:44;;;;;;;;;;;-2.20;99.90;;;;;;5053465;28;19929;-74
2022/04/03 05:38:11;;;;;;;;;;;-2.20;99.90;;;;;;5070145;28;20297;-74
2022/04/03 05:40:38;;;;;;;;;;;-2.30;99.90;;;;;;5070417;28;20307;-74
2022/04/03 05:43:06;;;;;;;;;;;-2.20;99.90;;;;;;5070139;28;19925;-74
2022/04/03 05:45:33;;;;;;;;;;;-2.20;99.90;;;;;;5053456;28;19925;-74
2022/04/03 05:48:05;;;;;;;;;;;-2.20;99.90;;;;;;5054128;28;19925;-74
2022/04/03 05:50:32;;;;;;;;;;;-2.20;99.90;;;;;;5070150;28;19932;-74
2022/04/03 05:52:59;;;;;;;;;;;-2.20;99.90;;;;;;5069909;28;19935;-75
2022/04/03 05:55:26;;;;;;;;;;;-2.20;99.90;;;;;;5069692;28;19925;-75
2022/04/03 05:57:54;;;;;;;;;;;-2.10;99.90;;;;;;5068665;28;19939;-75
2022/04/03 06:00:23;;;;;;;;;;;-2.10;99.90;;;;;;5040845;28;19926;-74
2022/04/03 06:02:51;;;;;;;;;;;-2.10;99.90;;;;;;5048549;28;19933;-74
2022/04/03 06:05:18;;;;;;;;;;;-2.10;99.90;;;;;;5047690;28;20016;-76
2022/04/03 06:07:45;;;;;;;;;;;-2.10;99.90;;;;;;5048474;28;20343;-75
2022/04/03 06:10:13;;;;;;;;;;;-2.00;99.90;;;;;;5032492;28;19932;-75
2022/04/03 06:12:51;;;;;;;;;;;-2.00;99.90;;;;;;5052151;28;19948;-75
2022/04/03 06:15:17;;;;;;;;;;;-2.00;99.90;;;;;;5068386;28;19932;-75
2022/04/03 06:17:47;;;;;;;;;;;-2.00;99.90;;;;;;5068268;28;19924;-76
2022/04/03 06:20:14;;;;;;;;;;;-1.90;99.90;;;;;;5051561;28;19925;-75
2022/04/03 06:22:41;;;;;;;;;;;-1.80;99.90;;;;;;5068374;28;20400;-75
2022/04/03 06:25:09;;;;;;;;;;;-1.80;99.90;;;;;;5067882;28;19924;-81
2022/04/03 06:27:35;;;;;;;;;;;-1.70;99.90;;;;;;5067780;28;19924;-75
2022/04/03 06:30:02;;;;;;;;;;;-1.70;99.90;;;;;;5067907;28;19924;-75
2022/04/03 06:32:29;;;;;;;;;;;-1.60;99.90;;;;;;5067897;28;19978;-75
2022/04/03 06:34:58;;;;;;;;;;;-1.50;99.90;;;;;;5051410;28;19925;-74
2022/04/03 06:37:24;;;;;;;;;;;-1.50;99.90;;;;;;5068107;28;19987;-76
2022/04/03 06:39:51;;;;;;;;;;;-1.40;99.90;;;;;;5044068;28;19925;-74
2022/04/03 06:42:18;;;;;;;;;;;-1.40;99.90;;;;;;5046790;28;19928;-75
2022/04/03 06:44:45;;;;;;;;;;;-1.30;99.90;;;;;;5059614;28;20346;-75
2022/04/03 06:47:12;;;;;;;;;;;-1.20;99.90;;;;;;5068332;28;20015;-75
2022/04/03 06:49:40;;;;;;;;;;;-1.20;99.90;;;;;;5067738;28;19925;-75
2022/04/03 06:52:09;;;;;;;;;;;-1.10;99.90;;;;;;5064399;28;19925;-75
2022/04/03 06:54:36;;;;;;;;;;;-1.00;99.90;;;;;;5052420;28;19956;-75
2022/04/03 06:57:03;;;;;;;;;;;-0.90;99.90;;;;;;5048237;28;20292;-74
2022/04/03 06:59:30;;;;;;;;;;;-0.90;99.90;;;;;;5047996;28;19944;-75
2022/04/03 07:01:57;;;;;;;;;;;-0.80;99.90;;;;;;5031098;28;19964;-74
2022/04/03 07:04:24;;;;;;;;;;;-0.70;99.90;;;;;;5047611;28;19925;-74
2022/04/03 07:06:51;;;;;;;;;;;-0.60;99.90;;;;;;5048239;28;20051;-74
2022/04/03 07:09:19;;;;;;;;;;;-0.50;99.90;;;;;;5047441;28;19932;-74
2022/04/03 07:11:46;;;;;;;;;;;-0.50;99.90;;;;;;5048339;28;20416;-74
2022/04/03 07:14:13;;;;;;;;;;;-0.40;99.90;;;;;;5047197;28;19925;-75
2022/04/03 07:16:40;;;;;;;;;;;-0.30;99.90;;;;;;5031042;28;19925;-74
2022/04/03 07:19:07;;;;;;;;;;;-0.20;99.90;;;;;;5030822;28;19925;-74
2022/04/03 07:21:34;;;;;;;;;;;-0.10;99.90;;;;;;5047448;28;19925;-72
2022/04/03 07:24:00;;;;;;;;;;;0.00;99.90;;;;;;5046667;28;20003;-73
2022/04/03 07:26:29;;;;;;;;;;;0.00;99.90;;;;;;5030579;28;19925;-73
2022/04/03 07:28:55;;;;;;;;;;;0.10;99.90;;;;;;5030313;28;19929;-73
2022/04/03 07:31:22;;;;;;;;;;;0.20;99.90;;;;;;5047414;28;19933;-73
2022/04/03 07:33:49;;;;;;;;;;;0.20;99.90;;;;;;5052096;28;20011;-73
2022/04/03 07:36:16;;;;;;;;;;;0.30;99.90;;;;;;5063030;28;19924;-73
2022/04/03 07:38:43;;;;;;;;;;;0.40;99.90;;;;;;5066949;28;19925;-74
2022/04/03 07:41:10;;;;;;;;;;;0.40;99.90;;;;;;5060438;28;19932;-73
2022/04/03 07:43:38;;;;;;;;;;;0.50;99.90;;;;;;5049094;28;19931;-73
2022/04/03 07:46:05;;;;;;;;;;;0.60;99.90;;;;;;5030356;28;19925;-70
2022/04/03 07:48:32;;;;;;;;;;;0.70;99.90;;;;;;5046923;28;20422;-74
2022/04/03 07:50:59;;;;;;;;;;;0.70;99.90;;;;;;5046627;28;19932;-73
2022/04/03 07:53:25;;;;;;;;;;;0.80;99.90;;;;;;5029932;28;19925;-71
2022/04/03 07:55:52;;;;;;;;;;;0.90;99.90;;;;;;5030626;28;19936;-74
2022/04/03 07:58:19;;;;;;;;;;;1.00;99.90;;;;;;5029037;28;20436;-73
2022/04/03 08:00:47;;;;;;;;;;;1.10;99.90;;;;;;5045890;28;20298;-73
2022/04/03 08:03:14;;;;;;;;;;;1.20;99.90;;;;;;5045769;28;19964;-73
2022/04/03 08:05:41;;;;;;;;;;;1.20;99.90;;;;;;5029068;28;19931;-74
2022/04/03 08:08:08;;;;;;;;;;;1.30;99.90;;;;;;5046175;28;20340;-73
2022/04/03 08:10:35;;;;;;;;;;;1.40;99.90;;;;;;5049545;28;19924;-74
2022/04/03 08:13:02;;;;;;;;;;;1.50;99.90;;;;;;5066764;28;19929;-73
2022/04/03 08:15:29;;;;;;;;;;;1.70;99.90;;;;;;5049948;28;19935;-74
2022/04/03 08:17:57;;;;;;;;;;;1.70;99.90;;;;;;5066788;28;19925;-74
2022/04/03 08:20:24;;;;;;;;;;;1.80;99.90;;;;;;5066822;28;19928;-74
2022/04/03 08:22:51;;;;;;;;;;;1.80;99.90;;;;;;5066552;28;19928;-73
2022/04/03 08:25:18;;;;;;;;;;;1.90;99.90;;;;;;5066345;28;19929;-72
2022/04/03 08:27:46;;;;;;;;;;;2.00;99.90;;;;;;5066818;28;19933;-73
2022/04/03 08:30:14;;;;;;;;;;;2.10;99.90;;;;;;5053531;28;19932;-74
2022/04/03 08:32:41;;;;;;;;;;;2.10;99.90;;;;;;5053643;28;19929;-73
2022/04/03 08:35:11;;;;;;;;;;;2.10;99.90;;;;;;5069951;28;20388;-73
2022/04/03 08:37:38;;;;;;;;;;;2.20;99.90;;;;;;5070245;28;19925;-73
2022/04/03 08:40:05;;;;;;;;;;;2.30;99.90;;;;;;5053298;28;19925;-73
2022/04/03 08:42:33;;;;;;;;;;;2.40;99.90;;;;;;5070346;28;19929;-74
2022/04/03 08:45:00;;;;;;;;;;;2.40;99.90;;;;;;5069669;28;19932;-73
2022/04/03 08:47:28;;;;;;;;;;;2.50;99.90;;;;;;5039912;28;20332;-73
2022/04/03 08:49:57;;;;;;;;;;;2.60;99.90;;;;;;5047502;28;19925;-74
2022/04/03 08:52:26;;;;;;;;;;;2.80;99.90;;;;;;5053275;28;20023;-74
2022/04/03 08:54:53;;;;;;;;;;;2.90;99.90;;;;;;5044371;28;19928;-73
2022/04/03 08:57:20;;;;;;;;;;;3.00;99.90;;;;;;5052357;28;19924;-74
2022/04/03 08:59:47;;;;;;;;;;;3.20;99.90;;;;;;5069655;28;19932;-73
2022/04/03 09:02:14;;;;;;;;;;;3.20;99.90;;;;;;5050451;28;20361;-74
2022/04/03 09:04:41;;;;;;;;;;;3.30;99.90;;;;;;5039971;28;19932;-74
2022/04/03 09:07:08;;;;;;;;;;;3.40;99.90;;;;;;5033824;28;19948;-74
2022/04/03 09:09:36;;;;;;;;;;;3.40;99.90;;;;;;5055648;28;19963;-73
2022/04/03 09:12:06;;;;;;;;;;;3.50;99.90;;;;;;5046624;28;19925;-73
2022/04/03 09:14:33;;;;;;;;;;;3.40;99.90;;;;;;5066039;28;19924;-74
2022/04/03 09:17:00;;;;;;;;;;;3.60;99.90;;;;;;5051548;28;19931;-74
2022/04/03 09:19:31;;;;;;;;;;;3.60;99.90;;;;;;5048257;28;19925;-74
2022/04/03 09:21:58;;;;;;;;;;;3.70;99.90;;;;;;5049504;28;19925;-74
2022/04/03 09:24:25;;;;;;;;;;;3.80;99.90;;;;;;5050013;28;19932;-74
2022/04/03 09:26:59;;;;;;;;;;;3.80;99.90;;;;;;5066280;28;19925;-74
2022/04/03 09:29:26;;;;;;;;;;;4.00;99.90;;;;;;5048972;28;20595;-74
2022/04/03 09:31:58;;;;;;;;;;;4.00;99.90;;;;;;5049969;28;20003;-74
2022/04/03 09:34:26;;;;;;;;;;;4.10;99.90;;;;;;5042289;28;19925;-73
2022/04/03 09:36:57;;;;;;;;;;;4.20;99.90;;;;;;5041229;28;19932;-71
2022/04/03 09:39:26;;;;;;;;;;;4.20;99.90;;;;;;5032444;28;19975;-74
2022/04/03 09:42:02;;;;;;;;;;;4.20;99.90;;;;;;5047890;28;19925;-74
2022/04/03 09:44:31;;;;;;;;;;;4.30;99.90;;;;;;5049525;28;19933;-75
2022/04/03 09:47:14;;;;;;;;;;;4.60;99.90;;;;;;5047158;28;19932;-75
2022/04/03 09:49:41;;;;;;;;;;;4.60;99.90;;;;;;5046994;28;19929;-74
2022/04/03 09:52:09;;;;;;;;;;;4.80;99.90;;;;;;5050557;28;19933;-73
2022/04/03 09:54:37;;;;;;;;;;;4.90;99.90;;;;;;5039917;28;19925;-76
2022/04/03 09:57:20;;;;;;;;;;;5.30;99.90;;;;;;5066088;28;19933;-70
2022/04/03 09:59:50;;;;;;;;;;;5.70;99.90;;;;;;5057706;28;19926;-75
2022/04/03 10:02:17;;;;;;;;;;;6.10;99.90;;;;;;5032975;28;19987;-74
2022/04/03 10:04:44;;;;;;;;;;;6.30;99.90;;;;;;5049413;28;19925;-74
2022/04/03 10:07:12;;;;;;;;;;;6.40;99.90;;;;;;5032964;28;19925;-74
2022/04/03 10:09:41;;;;;;;;;;;6.50;99.90;;;;;;5032744;28;19968;-75
2022/04/03 10:12:09;;;;;;;;;;;6.50;99.90;;;;;;5032675;28;19929;-74
2022/04/03 10:14:37;;;;;;;;;;;6.50;99.90;;;;;;5032615;28;19932;-74
2022/04/03 10:17:04;;;;;;;;;;;6.60;99.90;;;;;;5049062;28;19929;-74
2022/04/03 10:19:31;;;;;;;;;;;6.90;99.90;;;;;;5032265;28;19925;-74
2022/04/03 10:21:59;;;;;;;;;;;6.90;99.90;;;;;;5043874;28;19925;-74
2022/04/03 10:24:27;;;;;;;;;;;7.00;99.90;;;;;;5048678;28;19929;-73
2022/04/03 10:26:58;;;;;;;;;;;7.10;99.90;;;;;;5045817;28;20024;-74
2022/04/03 10:29:25;;;;;;;;;;;7.10;99.90;;;;;;5068920;28;19924;-75
2022/04/03 10:31:58;;;;;;;;;;;7.20;99.90;;;;;;5068996;28;20387;-71
2022/04/03 10:34:26;;;;;;;;;;;7.40;99.90;;;;;;5068264;28;19925;-75
2022/04/03 10:36:53;;;;;;;;;;;7.30;99.90;;;;;;5068793;28;19924;-75
2022/04/03 10:39:24;;;;;;;;;;;7.50;99.90;;;;;;5066023;28;20305;-77
2022/04/03 10:41:51;;;;;;;;;;;7.70;99.90;;;;;;5061717;28;19925;-73
2022/04/03 10:44:19;;;;;;;;;;;7.90;99.90;;;;;;5041883;28;19925;-75
2022/04/03 10:47:16;;;;;;;;;;;7.80;99.90;;;;;;5045264;28;19964;-75
2022/04/03 10:49:47;;;;;;;;;;;7.70;99.90;;;;;;5067556;28;19955;-76
2022/04/03 10:52:24;;;;;;;;;;;7.70;99.90;;;;;;5067184;28;20342;-75
2022/04/03 10:54:52;;;;;;;;;;;7.60;99.90;;;;;;5067514;28;19924;-75
2022/04/03 10:57:32;;;;;;;;;;;7.40;99.90;;;;;;5068356;28;19955;-75
2022/04/03 11:00:22;;;;;;;;;;;7.20;99.90;;;;;;5067420;28;19936;-75
2022/04/03 11:02:51;;;;;;;;;;;7.50;99.90;;;;;;5066776;28;20295;-75
2022/04/03 11:05:35;;;;;;;;;;;7.90;99.90;;;;;;5062982;28;19924;-75
2022/04/03 11:08:17;;;;;;;;;;;8.30;99.90;;;;;;5043979;28;19928;-76
2022/04/03 11:10:45;;;;;;;;;;;8.70;99.90;;;;;;5062300;28;20464;-74
2022/04/03 11:13:14;;;;;;;;;;;8.90;99.90;;;;;;5031224;28;19925;-73
2022/04/03 11:15:43;;;;;;;;;;;9.20;99.90;;;;;;5047563;28;19925;-76
2022/04/03 11:18:25;;;;;;;;;;;9.30;99.90;;;;;;5053978;28;19933;-75
2022/04/03 11:21:04;;;;;;;;;;;9.60;99.90;;;;;;5046954;28;20378;-75
2022/04/03 11:23:35;;;;;;;;;;;9.60;99.90;;;;;;5045208;28;19925;-78
2022/04/03 11:26:02;;;;;;;;;;;9.70;99.90;;;;;;5041971;28;19960;-78
2022/04/03 11:28:29;;;;;;;;;;;9.30;99.90;;;;;;5048732;28;19947;-75
2022/04/03 11:31:00;;;;;;;;;;;9.20;99.90;;;;;;5033758;28;20390;-75
2022/04/03 11:33:27;;;;;;;;;;;9.10;99.90;;;;;;5046708;28;19983;-76
2022/04/03 11:35:54;;;;;;;;;;;9.20;99.90;;;;;;5030107;28;19929;-75
2022/04/03 11:38:21;;;;;;;;;;;9.30;99.90;;;;;;5030921;28;19926;-81
2022/04/03 11:40:49;;;;;;;;;;;9.40;99.90;;;;;;5053417;28;19935;-75
2022/04/03 11:43:16;;;;;;;;;;;9.70;99.90;;;;;;5062365;28;20350;-75
2022/04/03 11:45:51;;;;;;;;;;;10.70;99.90;;;;;;5066609;28;19931;-76
2022/04/03 11:48:19;;;;;;;;;;;12.10;99.90;;;;;;5064506;28;19974;-76
2022/04/03 11:50:48;;;;;;;;;;;12.30;99.90;;;;;;5064154;28;19936;-75
2022/04/03 11:53:14;;;;;;;;;;;15.00;99.90;;;;;;5066585;28;20418;-75
2022/04/03 11:55:42;;;;;;;;;;;16.80;99.90;;;;;;5066316;28;19932;-75
2022/04/03 11:58:10;;;;;;;;;;;17.30;99.90;;;;;;5067727;28;19975;-76
2022/04/03 12:00:44;;;;;;;;;;;18.30;99.90;;;;;;5066609;28;20387;-76
2022/04/03 12:03:11;;;;;;;;;;;19.20;99.90;;;;;;5066331;28;19933;-76
2022/04/03 12:05:41;;;;;;;;;;;20.80;99.90;;;;;;5066569;28;20431;-76
2022/04/03 12:08:08;;;;;;;;;;;20.00;99.90;;;;;;5059622;28;19925;-76
2022/04/03 12:10:34;;;;;;;;;;;16.20;98.70;;;;;;5049246;28;19936;-77
2022/04/03 12:13:05;;;;;;;;;;;13.70;99.80;;;;;;5046324;28;19925;-75
2022/04/03 12:15:33;;;;;;;;;;;16.00;99.90;;;;;;5029738;28;19925;-76
2022/04/03 12:18:03;;;;;;;;;;;17.30;99.90;;;;;;5038279;28;19925;-76
2022/04/03 12:20:34;;;;;;;;;;;15.40;99.40;;;;;;5031316;28;19925;-76
2022/04/03 12:23:01;;;;;;;;;;;16.10;99.90;;;;;;5046308;28;20484;-76
2022/04/03 12:25:31;;;;;;;;;;;17.60;99.90;;;;;;5046295;28;19925;-76
2022/04/03 12:27:57;;;;;;;;;;;18.80;99.90;;;;;;5036378;28;19929;-78
2022/04/03 12:30:25;;;;;;;;;;;19.30;99.40;;;;;;5037200;28;19987;-76
2022/04/03 12:32:53;;;;;;;;;;;20.30;99.80;;;;;;5066791;28;19975;-77
2022/04/03 12:35:20;;;;;;;;;;;18.50;97.60;;;;;;5066314;28;19925;-76
2022/04/03 12:37:47;;;;;;;;;;;16.60;97.40;;;;;;5066537;28;19932;-76
2022/04/03 12:40:16;;;;;;;;;;;15.00;98.30;;;;;;5064843;28;19929;-78
2022/04/03 12:42:43;;;;;;;;;;;13.60;98.50;;;;;;5065248;28;19964;-76
2022/04/03 12:45:15;;;;;;;;;;;12.40;98.90;;;;;;5065913;28;20318;-76
2022/04/03 12:47:43;;;;;;;;;;;11.90;99.90;;;;;;5049719;28;20340;-75
2022/04/03 12:50:13;;;;;;;;;;;11.90;99.90;;;;;;5065761;28;19925;-76
2022/04/03 12:52:41;;;;;;;;;;;12.70;99.90;;;;;;5066188;28;19925;-76
2022/04/03 12:55:09;;;;;;;;;;;13.90;99.90;;;;;;5048957;28;19924;-76
2022/04/03 13:00:34;;;;;;;;;;;13.00;99.20;;;;;;4960825;28;19922;-75
2022/04/03 13:03:01;;;;;;;;;;;11.80;99.30;;;;;;4962646;28;20420;-75
2022/04/03 13:05:33;;;;;;;;;;;11.90;99.50;;;;;;5000477;28;19955;-76
2022/04/03 13:08:08;;;;;;;;;;;12.30;99.90;;;;;;5061864;28;19968;-77
2022/04/03 13:10:35;;;;;;;;;;;12.30;99.80;;;;;;5063685;28;19933;-75
2022/04/03 13:13:02;;;;;;;;;;;12.90;99.90;;;;;;5037980;28;19925;-76
2022/04/03 13:15:29;;;;;;;;;;;13.70;99.90;;;;;;5054289;28;19929;-76
2022/04/03 13:17:56;;;;;;;;;;;14.60;99.20;;;;;;5036499;28;19936;-76
2022/04/03 13:20:22;;;;;;;;;;;15.70;99.90;;;;;;5059704;28;19925;-78
2022/04/03 13:22:51;;;;;;;;;;;16.20;97.80;;;;;;5065402;28;19924;-77
2022/04/03 13:25:18;;;;;;;;;;;17.10;99.00;;;;;;5067795;28;20276;-75
2022/04/03 13:27:45;;;;;;;;;;;17.20;98.10;;;;;;5069519;28;19929;-77
2022/04/03 13:30:12;;;;;;;;;;;15.50;96.70;;;;;;5067248;28;19924;-76
2022/04/03 13:32:40;;;;;;;;;;;14.80;98.00;;;;;;5048836;28;20378;-75
2022/04/03 13:35:07;;;;;;;;;;;14.20;97.20;;;;;;5067118;28;19924;-75
2022/04/03 13:37:34;;;;;;;;;;;13.80;97.70;;;;;;5069182;28;20055;-75
2022/04/03 13:40:02;;;;;;;;;;;13.10;98.20;;;;;;5048293;28;19925;-75
2022/04/03 13:42:29;;;;;;;;;;;12.30;97.90;;;;;;5052995;28;19925;-74
2022/04/03 13:44:56;;;;;;;;;;;11.50;98.50;;;;;;5048592;28;20400;-75
2022/04/03 13:47:23;;;;;;;;;;;11.20;99.60;;;;;;5032731;28;19947;-75
2022/04/03 13:49:49;;;;;;;;;;;11.10;99.20;;;;;;5032119;28;19948;-75
2022/04/03 13:52:16;;;;;;;;;;;10.70;99.10;;;;;;5053331;28;20337;-74
2022/04/03 13:54:43;;;;;;;;;;;10.20;99.40;;;;;;5038860;28;19929;-73
2022/04/03 13:57:11;;;;;;;;;;;9.80;99.90;;;;;;5050573;28;19961;-74
2022/04/03 13:59:38;;;;;;;;;;;9.50;99.90;;;;;;5031832;28;19925;-74
2022/04/03 14:02:05;;;;;;;;;;;9.30;99.90;;;;;;5048801;28;19951;-75
2022/04/03 14:04:32;;;;;;;;;;;9.10;99.90;;;;;;5048410;28;19968;-74
2022/04/03 14:06:58;;;;;;;;;;;9.10;99.90;;;;;;5048546;28;19932;-75
2022/04/03 14:09:25;;;;;;;;;;;9.00;99.90;;;;;;5056215;28;19924;-75
2022/04/03 14:11:52;;;;;;;;;;;8.80;99.90;;;;;;5049571;28;19925;-75
2022/04/03 14:14:21;;;;;;;;;;;8.50;99.90;;;;;;5031456;28;19964;-75
2022/04/03 14:16:50;;;;;;;;;;;8.30;99.90;;;;;;5040350;28;20381;-74
2022/04/03 14:19:17;;;;;;;;;;;8.40;99.90;;;;;;5041206;28;19925;-74
2022/04/03 14:21:43;;;;;;;;;;;8.40;99.90;;;;;;5044694;28;20307;-74
2022/04/03 14:24:10;;;;;;;;;;;8.40;99.90;;;;;;5041859;28;19925;-74
2022/04/03 14:26:37;;;;;;;;;;;8.30;99.90;;;;;;5065335;28;19932;-74
2022/04/03 14:29:04;;;;;;;;;;;8.40;99.90;;;;;;5068156;28;19991;-76
2022/04/03 14:31:32;;;;;;;;;;;8.70;99.90;;;;;;5065264;28;20464;-75